createdAt,value
2019-04-11T00:01:48.595Z,4.00
2019-04-11T00:04:16.325Z,3.87
2019-04-11T00:06:44.807Z,3.10
2019-04-11T00:09:14.984Z,4.77
2019-04-11T00:11:44.189Z,2.77
2019-04-11T00:14:13.918Z,4.60
2019-04-11T00:16:43.537Z,4.57
2019-04-11T00:19:12.289Z,4.97
2019-04-11T00:21:41.529Z,4.63
2019-04-11T00:24:10.429Z,3.70
2019-04-11T00:26:40.245Z,4.20
2019-04-11T00:29:10.122Z,3.20
2019-04-11T00:31:39.132Z,4.70
2019-04-11T00:34:08.869Z,4.13
2019-04-11T00:36:38.705Z,4.77
2019-04-11T00:39:07.938Z,3.70
2019-04-11T00:41:37.621Z,4.33
2019-04-11T00:44:06.447Z,5.07
2019-04-11T00:46:36.171Z,3.53
2019-04-11T00:49:06.110Z,4.20
2019-04-11T00:51:34.715Z,4.93
2019-04-11T00:54:03.185Z,3.77
2019-04-11T00:56:32.467Z,4.10
2019-04-11T00:59:02.373Z,5.20
2019-04-11T01:01:31.581Z,3.93
2019-04-11T01:04:01.258Z,2.60
2019-04-11T01:06:30.095Z,4.60
2019-04-11T01:08:59.888Z,5.17
2019-04-11T01:11:29.984Z,4.17
2019-04-11T01:13:59.529Z,4.33
2019-04-11T01:16:52.706Z,3.70
2019-04-11T01:19:21.346Z,4.50
2019-04-11T01:21:50.987Z,4.50
2019-04-11T01:24:19.803Z,4.93
2019-04-11T01:26:49.594Z,4.80
2019-04-11T01:29:19.559Z,5.13
2019-04-11T01:31:55.919Z,5.47
2019-04-11T01:34:24.675Z,4.87
2019-04-11T01:36:53.433Z,5.10
2019-04-11T01:39:41.566Z,4.33
2019-04-11T01:42:11.126Z,3.63
2019-04-11T01:44:40.753Z,5.27
2019-04-11T01:47:11.074Z,5.47
2019-04-11T01:49:40.637Z,7.77
2019-04-11T01:52:09.824Z,6.40
2019-04-11T01:54:39.543Z,8.37
2019-04-11T01:57:08.043Z,8.20
2019-04-11T01:59:37.488Z,22.80
2019-04-11T02:02:24.355Z,5.83
2019-04-11T02:04:54.547Z,6.43
2019-04-11T02:07:23.077Z,5.03
2019-04-11T02:09:52.539Z,5.20
2019-04-11T02:12:22.400Z,5.13
2019-04-11T02:14:52.124Z,5.23
2019-04-11T02:17:20.961Z,3.60
2019-04-11T02:19:50.277Z,4.10
2019-04-11T02:22:24.331Z,5.50
2019-04-11T02:24:54.815Z,3.33
2019-04-11T02:27:27.967Z,4.00
2019-04-11T02:29:56.415Z,5.30
2019-04-11T02:32:28.709Z,5.60
2019-04-11T02:34:59.168Z,3.70
2019-04-11T02:37:26.544Z,5.10
2019-04-11T02:39:56.024Z,3.90
2019-04-11T02:42:26.160Z,5.00
2019-04-11T02:45:09.320Z,5.23
2019-04-11T02:47:31.221Z,5.13
2019-04-11T02:49:57.262Z,4.03
2019-04-11T02:52:44.489Z,6.03
2019-04-11T02:55:14.476Z,4.43
2019-04-11T02:57:43.292Z,4.63
2019-04-11T03:00:13.166Z,4.53
2019-04-11T03:02:44.261Z,5.83
2019-04-11T03:05:13.692Z,4.87
2019-04-11T03:07:42.691Z,4.90
2019-04-11T03:10:13.803Z,5.17
2019-04-11T03:12:43.659Z,4.73
2019-04-11T03:15:28.900Z,4.03
2019-04-11T03:17:46.010Z,5.80
2019-04-11T03:20:25.894Z,4.47
2019-04-11T03:22:45.434Z,5.40
2019-04-11T03:25:15.712Z,5.07
2019-04-11T03:27:45.270Z,4.10
2019-04-11T03:30:19.641Z,3.90
2019-04-11T03:38:04.210Z,4.67
2019-04-11T03:40:33.574Z,4.60
2019-04-11T03:43:04.331Z,4.67
2019-04-11T03:45:38.709Z,5.67
2019-04-11T03:48:06.058Z,4.20
2019-04-11T03:50:23.884Z,4.60
2019-04-11T03:52:51.706Z,5.00
2019-04-11T03:55:21.689Z,5.33
2019-04-11T03:57:53.620Z,6.03
2019-04-11T04:00:23.743Z,4.10
2019-04-11T04:02:52.594Z,5.20
2019-04-11T04:05:21.680Z,5.87
2019-04-11T04:07:50.574Z,5.33
2019-04-11T04:10:21.305Z,3.33
2019-04-11T04:12:51.463Z,5.73
2019-04-11T04:15:42.422Z,6.20
2019-04-11T04:18:00.991Z,4.33
2019-04-11T04:20:49.101Z,5.00
2019-04-11T04:23:29.425Z,3.93
2019-04-11T04:26:01.042Z,5.03
2019-04-11T04:28:29.586Z,5.40
2019-04-11T04:31:00.222Z,3.80
2019-04-11T04:33:30.411Z,5.90
2019-04-11T04:36:00.186Z,5.93
2019-04-11T04:38:29.591Z,5.57
2019-04-11T04:41:13.414Z,4.97
2019-04-11T04:43:31.559Z,5.90
2019-04-11T04:46:18.806Z,6.53
2019-04-11T04:48:32.151Z,3.90
2019-04-11T04:51:05.825Z,5.97
2019-04-11T04:53:31.421Z,6.10
2019-04-11T04:56:02.649Z,5.50
2019-04-11T04:58:31.705Z,5.93
2019-04-11T05:01:01.427Z,5.33
2019-04-11T05:03:32.000Z,5.87
2019-04-11T05:06:01.559Z,6.50
2019-04-11T05:08:32.394Z,6.30
2019-04-11T05:11:02.191Z,6.10
2019-04-11T05:13:32.273Z,6.27
2019-04-11T05:16:08.560Z,6.70
2019-04-11T05:18:32.172Z,3.90
2019-04-11T05:21:01.153Z,5.93
2019-04-11T05:23:30.138Z,4.57
2019-04-11T05:25:59.988Z,6.27
2019-04-11T05:28:29.820Z,6.73
2019-04-11T05:30:58.478Z,5.87
2019-04-11T05:33:27.382Z,6.63
2019-04-11T05:35:56.371Z,6.20
2019-04-11T05:38:25.287Z,6.20
2019-04-11T05:40:54.571Z,6.00
2019-04-11T05:43:28.061Z,6.03
2019-04-11T05:45:55.112Z,6.47
2019-04-11T05:48:31.075Z,6.97
2019-04-11T05:51:00.532Z,6.50
2019-04-11T05:53:32.827Z,5.07
2019-04-11T05:56:01.572Z,7.33
2019-04-11T05:58:32.465Z,7.30
2019-04-11T06:01:05.469Z,6.63
2019-04-11T06:03:34.404Z,6.03
2019-04-11T06:06:06.535Z,7.10
2019-04-11T06:08:37.933Z,6.77
2019-04-11T06:11:14.444Z,6.67
2019-04-11T06:13:54.881Z,7.40
2019-04-11T06:16:34.834Z,6.17
2019-04-11T06:19:01.149Z,4.90
2019-04-11T06:21:31.756Z,7.87
2019-04-11T06:24:07.918Z,6.70
2019-04-11T06:26:47.451Z,6.43
2019-04-11T06:29:24.387Z,6.03
2019-04-11T06:31:49.524Z,5.70
2019-04-11T06:34:18.036Z,6.50
2019-04-11T06:36:57.433Z,6.47
2019-04-11T06:39:43.631Z,5.77
2019-04-11T06:42:24.565Z,6.33
2019-04-11T06:45:04.091Z,7.27
2019-04-11T06:47:37.171Z,7.03
2019-04-11T06:50:09.082Z,5.40
2019-04-11T06:52:39.501Z,7.07
2019-04-11T06:55:10.867Z,6.30
2019-04-11T06:57:42.324Z,7.10
2019-04-11T07:00:13.117Z,7.17
2019-04-11T07:02:44.468Z,7.40
2019-04-11T07:05:16.343Z,7.10
2019-04-11T07:07:47.996Z,10.17
2019-04-11T07:10:18.247Z,7.10
2019-04-11T07:12:49.356Z,6.20
2019-04-11T07:15:20.716Z,6.27
2019-04-11T07:18:07.699Z,7.27
2019-04-11T07:20:43.832Z,7.83
2019-04-11T07:23:30.774Z,6.33
2019-04-11T07:26:04.494Z,7.20
2019-04-11T07:28:35.758Z,7.00
2019-04-11T07:31:23.364Z,7.67
2019-04-11T07:34:16.939Z,5.90
2019-04-11T07:37:04.616Z,4.70
2019-04-11T07:39:47.320Z,5.80
2019-04-11T07:42:21.277Z,7.20
2019-04-11T07:44:55.376Z,8.37
2019-04-11T07:47:26.715Z,7.97
2019-04-11T07:49:57.218Z,7.73
2019-04-11T07:52:27.583Z,7.23
2019-04-11T07:54:56.547Z,4.70
2019-04-11T07:57:42.596Z,8.23
2019-04-11T08:00:38.630Z,5.87
2019-04-11T08:03:12.391Z,7.20
2019-04-11T08:05:58.856Z,6.30
2019-04-11T08:08:30.134Z,8.50
2019-04-11T08:11:17.810Z,8.67
2019-04-11T08:13:56.701Z,6.57
2019-04-11T08:16:44.976Z,9.00
2019-04-11T08:19:24.799Z,7.93
2019-04-11T08:21:58.761Z,5.23
2019-04-11T08:24:32.255Z,7.77
2019-04-11T08:27:09.507Z,5.20
2019-04-11T08:29:38.326Z,7.60
2019-04-11T08:32:27.515Z,6.00
2019-04-11T08:34:59.679Z,8.30
2019-04-11T08:37:33.764Z,6.87
2019-04-11T08:40:03.901Z,5.20
2019-04-11T08:42:37.750Z,8.90
2019-04-11T08:45:09.087Z,7.27
2019-04-11T08:47:47.700Z,8.47
2019-04-11T08:50:14.370Z,9.30
2019-04-11T08:52:44.689Z,5.93
2019-04-11T08:55:17.130Z,8.83
2019-04-11T08:57:47.749Z,5.53
2019-04-11T09:00:34.622Z,5.70
2019-04-11T09:03:05.106Z,6.53
2019-04-11T09:05:51.668Z,4.67
2019-04-11T09:08:25.230Z,8.80
2019-04-11T09:11:12.728Z,6.50
2019-04-11T09:13:59.799Z,8.10
2019-04-11T09:16:47.708Z,8.23
2019-04-11T09:19:23.615Z,9.13
2019-04-11T09:22:12.975Z,8.50
2019-04-11T09:24:43.631Z,7.70
2019-04-11T09:27:31.118Z,5.93
2019-04-11T09:30:02.536Z,8.10
2019-04-11T09:32:42.700Z,7.13
2019-04-11T09:35:29.075Z,9.10
2019-04-11T09:38:00.160Z,4.83
2019-04-11T09:40:36.239Z,7.90
2019-04-11T09:43:19.626Z,9.57
2019-04-11T09:46:08.281Z,8.90
2019-04-11T09:48:56.275Z,8.57
2019-04-11T09:51:36.003Z,7.13
2019-04-11T09:54:16.091Z,8.77
2019-04-11T09:57:02.347Z,8.13
2019-04-11T09:59:39.309Z,7.77
2019-04-11T10:02:12.584Z,8.50
2019-04-11T10:04:43.791Z,5.60
2019-04-11T10:07:17.593Z,7.03
2019-04-11T10:09:54.199Z,6.47
2019-04-11T10:12:40.603Z,6.13
2019-04-11T10:15:11.313Z,7.00
2019-04-11T10:17:42.512Z,8.97
2019-04-11T10:20:16.177Z,9.23
2019-04-11T10:22:58.763Z,8.90
2019-04-11T10:25:30.215Z,7.33
2019-04-11T10:28:07.252Z,7.53
2019-04-11T10:30:44.123Z,8.27
2019-04-11T10:33:17.196Z,8.80
2019-04-11T10:36:00.840Z,8.20
2019-04-11T10:38:30.725Z,9.03
2019-04-11T10:41:01.106Z,9.37
2019-04-11T10:43:36.283Z,9.10
2019-04-11T10:46:19.596Z,8.37
2019-04-11T10:49:05.392Z,9.17
2019-04-11T10:51:45.611Z,8.23
2019-04-11T10:54:15.550Z,7.40
2019-04-11T10:57:03.465Z,6.87
2019-04-11T10:59:34.496Z,8.10
2019-04-11T11:02:04.628Z,5.30
2019-04-11T11:04:34.826Z,8.33
2019-04-11T11:07:06.603Z,8.07
2019-04-11T11:09:48.501Z,5.40
2019-04-11T11:12:41.460Z,6.83
2019-04-11T11:15:13.476Z,5.67
2019-04-11T11:18:20.619Z,7.40
2019-04-11T11:20:50.207Z,6.63
2019-04-11T11:23:50.802Z,6.97
2019-04-11T11:26:22.852Z,7.73
2019-04-11T11:28:52.952Z,7.23
2019-04-11T11:31:29.996Z,7.33
2019-04-11T11:33:58.917Z,7.77
2019-04-11T11:36:35.939Z,7.33
2019-04-11T11:39:19.776Z,6.13
2019-04-11T11:42:06.348Z,7.60
2019-04-11T11:44:39.495Z,6.73
2019-04-11T11:47:25.839Z,6.10
2019-04-11T11:50:00.566Z,7.47
2019-04-11T11:52:37.580Z,7.73
2019-04-11T11:55:10.266Z,7.27
2019-04-11T11:57:40.583Z,7.83
2019-04-11T12:00:12.697Z,5.70
2019-04-11T12:02:44.149Z,6.57
2019-04-11T12:05:18.029Z,7.87
2019-04-11T12:07:47.326Z,7.60
2019-04-11T12:10:22.404Z,4.70
2019-04-11T12:12:52.344Z,6.80
2019-04-11T12:15:39.246Z,6.50
2019-04-11T12:18:24.892Z,6.93
2019-04-11T12:20:59.216Z,4.40
2019-04-11T12:23:56.192Z,6.20
2019-04-11T12:26:21.973Z,5.97
2019-04-11T12:28:52.297Z,7.00
2019-04-11T12:31:23.884Z,5.63
2019-04-11T12:34:00.089Z,4.70
2019-04-11T12:36:37.019Z,7.17
2019-04-11T12:39:25.457Z,6.23
2019-04-11T12:42:01.888Z,6.37
2019-04-11T12:44:32.072Z,6.13
2019-04-11T12:47:02.303Z,7.63
2019-04-11T12:49:52.856Z,4.57
2019-04-11T12:52:35.881Z,6.47
2019-04-11T12:55:10.327Z,7.30
2019-04-11T12:57:56.732Z,6.83
2019-04-11T13:00:26.965Z,7.50
2019-04-11T13:03:08.799Z,6.80
2019-04-11T13:05:47.932Z,6.93
2019-04-11T13:08:34.315Z,7.87
2019-04-11T13:11:02.939Z,5.50
2019-04-11T13:13:33.090Z,6.80
2019-04-11T13:16:11.976Z,6.53
2019-04-11T13:18:51.451Z,6.67
2019-04-11T13:21:27.568Z,4.97
2019-04-11T13:23:57.747Z,5.07
2019-04-11T13:26:44.395Z,6.90
2019-04-11T13:29:32.768Z,7.47
2019-04-11T13:32:18.827Z,4.47
2019-04-11T13:34:48.939Z,5.50
2019-04-11T13:37:19.067Z,5.73
2019-04-11T13:39:49.311Z,4.00
2019-04-11T13:42:35.293Z,5.33
2019-04-11T13:45:05.310Z,5.63
2019-04-11T13:47:44.335Z,7.50
2019-04-11T13:50:16.935Z,4.90
2019-04-11T13:53:02.399Z,7.93
2019-04-11T13:55:30.883Z,5.63
2019-04-11T13:58:19.173Z,7.03
2019-04-11T14:00:48.317Z,7.67
2019-04-11T14:03:27.380Z,6.17
2019-04-11T14:05:57.615Z,4.87
2019-04-11T14:08:42.883Z,6.83
2019-04-11T14:11:22.212Z,4.53
2019-04-11T14:13:50.665Z,3.90
2019-04-11T14:16:26.316Z,8.03
2019-04-11T14:18:56.416Z,7.17
2019-04-11T14:21:28.346Z,8.03
2019-04-11T14:23:58.468Z,6.97
2019-04-11T14:26:40.739Z,7.83
2019-04-11T14:29:22.840Z,7.87
2019-04-11T14:31:53.909Z,7.90
2019-04-11T14:34:41.003Z,7.90
2019-04-11T14:37:11.157Z,7.83
2019-04-11T14:39:41.257Z,8.23
2019-04-11T14:42:28.086Z,6.57
2019-04-11T14:44:56.719Z,7.50
2019-04-11T14:47:38.978Z,5.63
2019-04-11T14:50:11.073Z,7.40
2019-04-11T14:52:50.283Z,7.23
2019-04-11T14:55:20.485Z,7.63
2019-04-11T14:58:06.794Z,7.13
2019-04-11T15:00:36.727Z,6.90
2019-04-11T15:03:23.827Z,6.03
2019-04-11T15:05:55.308Z,5.43
2019-04-11T15:08:31.445Z,8.07
2019-04-11T15:11:20.716Z,5.67
2019-04-11T15:14:08.444Z,7.97
2019-04-11T15:16:56.736Z,4.53
2019-04-11T15:19:29.124Z,4.57
2019-04-11T15:22:01.231Z,7.10
2019-04-11T15:24:31.526Z,5.73
2019-04-11T15:27:38.528Z,7.83
2019-04-11T15:30:11.142Z,7.93
2019-04-11T15:32:46.242Z,7.93
2019-04-11T15:35:18.331Z,7.50
2019-04-11T15:38:08.926Z,7.07
2019-04-11T15:40:40.389Z,5.37
2019-04-11T15:43:16.143Z,7.40
2019-04-11T15:45:51.270Z,8.03
2019-04-11T15:48:26.408Z,8.30
2019-04-11T15:51:14.233Z,7.40
2019-04-11T15:53:46.690Z,7.70
2019-04-11T15:56:36.236Z,8.03
2019-04-11T15:59:12.970Z,8.50
2019-04-11T16:02:01.022Z,6.57
2019-04-11T16:04:32.496Z,5.33
2019-04-11T16:07:08.139Z,8.37
2019-04-11T16:09:42.247Z,4.73
2019-04-11T16:12:16.444Z,7.63
2019-04-11T16:14:48.832Z,9.07
2019-04-11T16:17:37.385Z,8.90
2019-04-11T16:20:09.426Z,8.77
2019-04-11T16:22:47.357Z,8.17
2019-04-11T16:25:19.404Z,8.57
2019-04-11T16:28:08.302Z,7.47
2019-04-11T16:30:41.166Z,7.93
2019-04-11T16:33:13.791Z,5.70
2019-04-11T16:35:46.145Z,8.33
2019-04-11T16:38:24.396Z,8.30
2019-04-11T16:41:13.455Z,8.90
2019-04-11T16:43:45.842Z,7.17
2019-04-11T16:46:27.671Z,7.53
2019-04-11T16:48:59.036Z,8.77
2019-04-11T16:51:31.111Z,7.13
2019-04-11T16:54:02.212Z,7.83
2019-04-11T16:56:33.814Z,6.23
2019-04-11T16:59:03.996Z,8.70
2019-04-11T17:01:34.432Z,8.63
2019-04-11T17:04:05.730Z,8.30
2019-04-11T17:06:55.569Z,7.40
2019-04-11T17:09:31.146Z,8.80
2019-04-11T17:12:01.827Z,5.23
2019-04-11T17:14:33.345Z,7.97
2019-04-11T17:17:14.503Z,7.30
2019-04-11T17:19:38.912Z,6.87
2019-04-11T17:22:09.510Z,5.77
2019-04-11T17:24:40.149Z,8.23
2019-04-11T17:27:12.206Z,8.00
2019-04-11T17:29:42.703Z,7.47
2019-04-11T17:32:14.072Z,8.20
2019-04-11T17:34:45.481Z,8.07
2019-04-11T17:37:15.714Z,8.00
2019-04-11T17:39:45.408Z,7.17
2019-04-11T17:42:16.538Z,7.60
2019-04-11T17:44:47.249Z,6.07
2019-04-11T17:47:17.764Z,7.80
2019-04-11T17:49:50.755Z,6.53
2019-04-11T17:52:21.818Z,7.03
2019-04-11T17:54:54.336Z,8.37
2019-04-11T17:57:27.117Z,5.03
2019-04-11T17:59:59.806Z,8.37
2019-04-11T18:02:32.861Z,8.60
2019-04-11T18:05:04.494Z,8.40
2019-04-11T18:07:37.761Z,8.43
2019-04-11T18:10:10.625Z,8.10
2019-04-11T18:12:42.355Z,8.80
2019-04-11T18:15:14.175Z,8.03
2019-04-11T18:17:46.565Z,7.40
2019-04-11T18:20:19.038Z,8.30
2019-04-11T18:22:53.693Z,6.20
2019-04-11T18:25:25.017Z,7.80
2019-04-11T18:27:56.503Z,8.27
2019-04-11T18:30:28.265Z,7.10
2019-04-11T18:33:00.210Z,6.77
2019-04-11T18:35:31.948Z,5.50
2019-04-11T18:38:02.636Z,6.77
2019-04-11T18:40:33.743Z,7.27
2019-04-11T18:43:04.341Z,8.60
2019-04-11T18:45:57.945Z,8.30
2019-04-11T18:48:29.300Z,6.83
2019-04-11T18:51:02.307Z,7.77
2019-04-11T18:53:34.260Z,8.30
2019-04-11T18:56:04.579Z,8.30
2019-04-11T18:58:35.935Z,7.73
2019-04-11T19:01:09.076Z,6.80
2019-04-11T19:03:41.362Z,7.47
2019-04-11T19:06:27.213Z,8.47
2019-04-11T19:08:50.086Z,8.77
2019-04-11T19:11:24.689Z,8.90
2019-04-11T19:13:55.188Z,8.53
2019-04-11T19:16:25.558Z,9.00
2019-04-11T19:18:57.433Z,8.13
2019-04-11T19:21:28.932Z,8.27
2019-04-11T19:23:59.962Z,6.30
2019-04-11T19:26:31.648Z,9.67
2019-04-11T19:29:01.640Z,8.57
2019-04-11T19:31:33.233Z,8.93
2019-04-11T19:34:08.629Z,9.97
2019-04-11T19:36:39.892Z,9.13
2019-04-11T19:39:13.788Z,9.07
2019-04-11T19:41:43.185Z,9.10
2019-04-11T19:44:12.699Z,8.53
2019-04-11T19:46:43.188Z,9.27
2019-04-11T19:49:32.993Z,9.03
2019-04-11T19:52:03.547Z,9.37
2019-04-11T19:54:34.481Z,9.57
2019-04-11T19:57:06.991Z,7.57
2019-04-11T19:59:38.443Z,8.97
2019-04-11T20:02:10.064Z,7.13
2019-04-11T20:04:41.412Z,9.63
2019-04-11T20:07:12.370Z,9.50
2019-04-11T20:09:41.346Z,9.23
2019-04-11T20:12:13.072Z,10.13
2019-04-11T20:14:43.678Z,8.10
2019-04-11T20:17:12.665Z,10.33
2019-04-11T20:19:43.710Z,6.60
2019-04-11T20:22:14.610Z,6.13
2019-04-11T20:24:46.832Z,9.70
2019-04-11T20:27:20.043Z,8.47
2019-04-11T20:29:53.142Z,7.73
2019-04-11T20:32:22.585Z,10.80
2019-04-11T20:34:52.646Z,11.33
2019-04-11T20:37:24.710Z,10.90
2019-04-11T20:39:59.099Z,10.27
2019-04-11T20:42:29.322Z,10.80
2019-04-11T20:45:01.353Z,10.47
2019-04-11T20:47:34.552Z,10.33
2019-04-11T20:50:07.699Z,9.47
2019-04-11T20:52:40.844Z,10.63
2019-04-11T20:55:12.172Z,10.53
2019-04-11T20:57:43.137Z,10.53
2019-04-11T21:00:13.360Z,10.47
2019-04-11T21:02:43.876Z,10.80
2019-04-11T21:05:15.190Z,10.77
2019-04-11T21:07:47.137Z,9.57
2019-04-11T21:10:18.572Z,9.90
2019-04-11T21:12:49.973Z,10.27
2019-04-11T21:15:19.331Z,11.33
2019-04-11T21:17:50.707Z,11.20
2019-04-11T21:20:23.840Z,10.60
2019-04-11T21:22:54.004Z,8.13
2019-04-11T21:25:26.096Z,10.97
2019-04-11T21:27:59.998Z,10.70
2019-04-11T21:30:31.203Z,10.70
2019-04-11T21:33:03.636Z,10.37
2019-04-11T21:35:35.494Z,10.73
2019-04-11T21:38:08.106Z,10.57
2019-04-11T21:40:39.865Z,10.47
2019-04-11T21:43:11.300Z,10.63
2019-04-11T21:45:42.499Z,10.70
2019-04-11T21:48:14.452Z,8.10
2019-04-11T21:50:44.724Z,9.63
2019-04-11T21:53:16.912Z,11.20
2019-04-11T21:55:48.375Z,11.20
2019-04-11T21:58:20.507Z,8.77
2019-04-11T22:00:55.052Z,9.20
2019-04-11T22:03:24.951Z,9.23
2019-04-11T22:05:53.885Z,10.30
2019-04-11T22:08:25.529Z,9.23
2019-04-11T22:10:56.642Z,10.93
2019-04-11T22:13:30.442Z,10.60
2019-04-11T22:16:00.982Z,10.30
2019-04-11T22:18:32.091Z,11.77
2019-04-11T22:21:03.490Z,11.10
2019-04-11T22:23:34.165Z,11.33
2019-04-11T22:26:05.248Z,10.57
2019-04-11T22:28:36.440Z,9.77
2019-04-11T22:31:07.312Z,10.70
2019-04-11T22:33:40.152Z,10.00
2019-04-11T22:36:11.476Z,10.17
2019-04-11T22:38:43.281Z,10.93
2019-04-11T22:41:13.644Z,10.20
2019-04-11T22:43:45.163Z,10.67
2019-04-11T22:46:20.859Z,9.30
2019-04-11T22:48:49.742Z,10.33
2019-04-11T22:51:19.907Z,10.97
2019-04-11T22:53:59.877Z,10.57
2019-04-11T22:56:23.078Z,10.57
2019-04-11T22:58:54.145Z,9.63
2019-04-11T23:01:27.391Z,10.30
2019-04-11T23:04:00.188Z,9.43
2019-04-11T23:06:31.691Z,10.00
2019-04-11T23:09:01.957Z,9.77
2019-04-11T23:11:33.422Z,9.47
2019-04-11T23:14:04.828Z,10.00
2019-04-11T23:16:36.431Z,9.03
2019-04-11T23:19:07.068Z,9.40
2019-04-11T23:21:38.669Z,9.77
2019-04-11T23:24:12.134Z,8.10
2019-04-11T23:26:41.791Z,9.73
2019-04-11T23:29:15.616Z,8.97
2019-04-11T23:31:50.610Z,9.40
2019-04-11T23:34:22.121Z,9.50
2019-04-11T23:36:53.333Z,8.83
2019-04-11T23:39:24.491Z,9.03
2019-04-11T23:41:54.618Z,9.30
2019-04-11T23:44:26.675Z,8.60
2019-04-11T23:46:58.973Z,8.17
2019-04-11T23:49:31.059Z,8.60
2019-04-11T23:52:02.371Z,8.73
2019-04-11T23:54:38.731Z,8.83
2019-04-11T23:57:09.846Z,8.77
2019-04-11T23:59:41.316Z,8.60
